Imst, Austria
Current Conditions -  °F | °C
As of 3:50 PM on Saturday 22 Nov 2014 (Local Time) from LOWI Reporting Station
Clear Clear  
Wind Chill: 55°   Ceiling: Unl
Heat Index: 55°   Visibility: 6mi
Dew Point: 43°   Wind: 2mph
Humidity: 63%   Direction: 150°SSE
Pressure: 30.15"   Gusts: NA
Location:  47.25°N, 10.73°E
Report Text: LOWI 221350Z 15002KT CAVOK 13/06 Q1021 NOSIG
Loading
Personal Weather Stations






























Interactive Weather Map New forecast layout! Learn more

10-Day Weather Forecast

Advertisements
Track Severe Weather on mobile